Time;durP1;ratioP1;P1;durP2;ratioP2;P2;SDS_P1;SDS_P2;PMS_P1;PMS_P2;Temp;Humidity;BMP_temperature;BMP_pressure;BME280_temperature;BME280_humidity;BME280_pressure;Samples;Min_cycle;Max_cycle;Signal;HPM_P1;HPM_P2
2021/04/10 00:00:25;;;;;;;7.00;2.10;;;;;;;4.18;79.55;100636.53;5034832;28;20263;-70
2021/04/10 00:02:52;;;;;;;4.00;1.70;;;;;;;4.14;79.85;100624.34;5033922;28;20238;-69
2021/04/10 00:05:24;;;;;;;6.80;2.30;;;;;;;4.10;79.99;100622.69;5017524;28;20194;-70
2021/04/10 00:07:49;;;;;;;5.03;2.30;;;;;;;4.05;80.36;100626.31;5033551;28;20264;-71
2021/04/10 00:10:15;;;;;;;4.53;2.03;;;;;;;4.03;80.74;100621.97;5034787;28;20176;-69
2021/04/10 00:12:41;;;;;;;9.53;2.40;;;;;;;4.01;80.51;100627.31;5018301;28;20172;-69
2021/04/10 00:15:09;;;;;;;6.97;2.40;;;;;;;4.04;79.94;100629.88;5035548;28;20184;-69
2021/04/10 00:17:35;;;;;;;7.30;2.50;;;;;;;4.04;79.58;100626.34;5035090;28;20648;-69
2021/04/10 00:20:00;;;;;;;7.77;2.63;;;;;;;4.02;80.07;100628.19;5033438;28;20229;-70
2021/04/10 00:22:25;;;;;;;8.47;2.07;;;;;;;4.00;80.34;100633.50;5035187;28;20251;-70
2021/04/10 00:24:51;;;;;;;6.37;2.00;;;;;;;3.98;80.20;100627.41;5034926;28;20199;-70
2021/04/10 00:27:16;;;;;;;6.47;1.80;;;;;;;3.99;79.67;100623.84;5035242;28;20228;-70
2021/04/10 00:29:41;;;;;;;6.83;1.90;;;;;;;4.04;79.25;100623.72;5033849;28;20234;-70
2021/04/10 00:32:07;;;;;;;6.17;1.93;;;;;;;4.02;79.68;100613.19;5036217;28;20183;-70
2021/04/10 00:34:32;;;;;;;4.53;2.33;;;;;;;4.03;79.79;100617.56;5037013;28;20277;-70
2021/04/10 00:36:57;;;;;;;7.80;2.50;;;;;;;4.02;80.21;100626.41;5040190;28;20564;-69
2021/04/10 00:39:23;;;;;;;7.53;2.00;;;;;;;4.02;80.20;100626.41;5042994;28;20209;-69
2021/04/10 00:41:48;;;;;;;5.13;1.83;;;;;;;4.05;80.62;100636.88;5040715;28;20203;-69
2021/04/10 00:44:13;;;;;;;9.20;2.20;;;;;;;4.05;80.39;100636.88;5037560;28;20184;-70
2021/04/10 00:46:39;;;;;;;7.37;2.40;;;;;;;4.08;80.16;100642.06;5038841;28;20176;-69
2021/04/10 00:49:04;;;;;;;4.50;1.60;;;;;;;4.14;79.90;100645.47;5036566;28;20725;-69
2021/04/10 00:51:29;;;;;;;7.83;1.90;;;;;;;4.20;79.70;100653.22;5038410;28;20206;-71
2021/04/10 00:53:55;;;;;;;5.10;2.23;;;;;;;4.22;79.33;100649.59;5036397;28;20209;-70
2021/04/10 00:56:20;;;;;;;5.70;2.10;;;;;;;4.23;79.54;100651.34;5036583;28;20176;-70
2021/04/10 00:58:46;;;;;;;6.40;1.80;;;;;;;4.29;79.20;100640.56;5020127;28;20179;-70
2021/04/10 01:01:11;;;;;;;7.20;2.23;;;;;;;4.31;78.68;100649.31;5019916;28;20223;-70
2021/04/10 01:03:37;;;;;;;7.90;2.13;;;;;;;4.31;78.76;100651.09;5020241;28;20564;-71
2021/04/10 01:06:02;;;;;;;5.60;2.13;;;;;;;4.31;78.75;100646.69;5020056;28;20175;-70
2021/04/10 01:08:28;;;;;;;5.80;1.87;;;;;;;4.32;79.29;100651.06;5037098;28;20241;-72
2021/04/10 01:11:00;;;;;;;6.90;2.30;;;;;;;4.36;79.09;100662.38;5038644;28;20176;-70
2021/04/10 01:13:54;;;;;;;5.97;2.07;;;;;;;4.40;78.26;100662.25;5036462;28;20241;-69
2021/04/10 01:16:22;;;;;;;5.33;2.30;;;;;;;4.35;78.75;100660.66;5037486;28;20168;-70
2021/04/10 01:19:06;;;;;;;6.30;2.03;;;;;;;4.31;78.91;100659.03;5037211;28;20172;-69
2021/04/10 01:21:36;;;;;;;10.87;2.50;;;;;;;4.29;78.94;100660.84;5037801;28;20161;-70
2021/04/10 01:24:36;;;;;;;8.57;2.40;;;;;;;4.30;78.22;100650.22;5019725;28;20220;-70
2021/04/10 01:27:13;;;;;;;6.40;2.27;;;;;;;4.33;78.27;100651.91;5036522;28;20259;-70
2021/04/10 01:29:46;;;;;;;6.47;1.83;;;;;;;4.28;78.50;100649.41;5036813;28;20167;-71
2021/04/10 01:32:13;;;;;;;6.17;1.90;;;;;;;4.31;78.13;100645.81;5036652;28;20225;-70
2021/04/10 01:34:45;;;;;;;9.20;2.07;;;;;;;4.38;77.65;100650.00;5036338;28;20188;-70
2021/04/10 01:37:14;;;;;;;7.83;2.10;;;;;;;4.36;77.39;100650.03;5037504;28;20188;-71
2021/04/10 01:39:40;;;;;;;7.80;2.53;;;;;;;4.34;77.36;100656.28;5036788;28;20255;-69
2021/04/10 01:42:08;;;;;;;5.73;1.93;;;;;;;4.33;77.48;100646.63;5035514;28;20180;-70
2021/04/10 01:44:33;;;;;;;9.83;2.07;;;;;;;4.31;77.72;100648.47;5034962;28;20306;-69
2021/04/10 01:46:59;;;;;;;5.93;1.60;;;;;;;4.22;78.14;100641.69;5036112;28;20188;-69
2021/04/10 01:49:26;;;;;;;7.03;1.77;;;;;;;4.21;77.47;100633.81;5034353;28;20172;-70
2021/04/10 01:51:51;;;;;;;5.90;1.67;;;;;;;4.11;78.31;100637.63;5035025;28;20203;-70
2021/04/10 01:54:17;;;;;;;7.43;2.20;;;;;;;4.00;78.26;100622.94;5034385;28;20687;-70
2021/04/10 01:56:43;;;;;;;8.07;2.00;;;;;;;3.91;78.87;100619.72;5034370;28;20211;-70
2021/04/10 01:59:09;;;;;;;6.43;1.60;;;;;;;3.87;79.15;100621.56;5035075;28;20172;-69
2021/04/10 02:01:35;;;;;;;7.57;1.87;;;;;;;3.81;79.34;100621.75;5034403;28;20175;-70
2021/04/10 02:04:01;;;;;;;9.63;1.80;;;;;;;3.71;79.85;100628.19;5034377;28;20224;-70
2021/04/10 02:06:27;;;;;;;6.57;1.57;;;;;;;3.60;80.36;100622.34;5034791;28;20243;-70
2021/04/10 02:08:53;;;;;;;9.07;1.93;;;;;;;3.49;80.33;100630.56;5034404;28;20179;-70
2021/04/10 02:11:19;;;;;;;7.67;2.00;;;;;;;3.40;81.37;100630.81;5034284;28;20171;-70
2021/04/10 02:13:45;;;;;;;6.27;2.47;;;;;;;3.39;81.44;100629.09;5035211;28;20203;-70
2021/04/10 02:16:10;;;;;;;9.63;2.07;;;;;;;3.42;81.21;100643.06;5034016;28;20179;-70
2021/04/10 02:18:36;;;;;;;9.20;2.10;;;;;;;3.37;81.49;100644.97;5034212;28;20666;-70
2021/04/10 02:21:07;;;;;;;10.23;2.10;;;;;;;3.38;81.83;100646.69;5034077;28;20206;-70
2021/04/10 02:23:33;;;;;;;10.10;2.30;;;;;;;3.39;81.83;100647.56;5034034;28;20218;-70
2021/04/10 02:26:00;;;;;;;5.07;1.87;;;;;;;3.24;82.23;100646.16;5035141;28;20187;-70
2021/04/10 02:28:25;;;;;;;9.27;2.13;;;;;;;3.22;82.28;100653.25;5035196;28;20205;-70
2021/04/10 02:30:51;;;;;;;7.87;2.13;;;;;;;3.21;82.66;100654.16;5035145;28;20187;-69
2021/04/10 02:33:34;;;;;;;7.17;2.10;;;;;;;3.18;82.66;100656.88;5033775;28;20568;-70
2021/04/10 02:36:00;;;;;;;7.77;2.10;;;;;;;3.14;82.74;100660.50;5034978;28;20560;-69
2021/04/10 02:38:27;;;;;;;10.70;2.37;;;;;;;3.13;82.50;100653.50;5033759;28;20168;-70
2021/04/10 02:40:58;;;;;;;4.07;2.00;;;;;;;3.17;82.29;100664.81;5033681;28;20175;-69
2021/04/10 02:43:28;;;;;;;11.33;2.53;;;;;;;3.19;82.07;100663.88;5034816;28;20200;-70
2021/04/10 02:45:59;;;;;;;8.17;2.43;;;;;;;3.20;82.13;100676.16;5017063;28;20207;-70
2021/04/10 02:48:52;;;;;;;5.60;1.73;;;;;;;3.21;82.12;100680.53;5034944;28;20164;-70
2021/04/10 02:51:18;;;;;;;9.10;2.00;;;;;;;3.23;81.71;100685.78;5003354;28;20238;-69
2021/04/10 02:53:45;;;;;;;9.40;1.97;;;;;;;3.19;81.66;100677.06;5034490;28;20207;-70
2021/04/10 02:56:12;;;;;;;10.03;2.40;;;;;;;3.13;81.78;100679.88;5033901;28;20190;-70
2021/04/10 02:58:38;;;;;;;6.63;2.13;;;;;;;3.07;82.98;100669.47;5033278;28;20185;-70
2021/04/10 03:01:04;;;;;;;12.77;2.50;;;;;;;2.97;83.51;100668.81;5033492;28;20186;-70
2021/04/10 03:03:32;;;;;;;7.97;2.30;;;;;;;2.97;83.44;100674.09;5033132;28;20199;-70
2021/04/10 03:05:57;;;;;;;10.77;2.37;;;;;;;2.95;83.29;100675.88;5033331;28;20175;-69
2021/04/10 03:08:23;;;;;;;9.33;2.30;;;;;;;2.93;83.61;100682.09;5033148;28;20175;-70
2021/04/10 03:10:50;;;;;;;8.17;2.27;;;;;;;2.93;83.39;100682.09;5033029;28;20509;-70
2021/04/10 03:13:17;;;;;;;12.37;2.80;;;;;;;2.92;83.33;100683.00;5032889;28;20195;-70
2021/04/10 03:15:43;;;;;;;9.90;2.30;;;;;;;2.92;83.29;100680.38;5034238;28;20180;-69
2021/04/10 03:18:10;;;;;;;6.63;2.10;;;;;;;2.90;83.47;100674.28;5033065;28;20255;-70
2021/04/10 03:20:35;;;;;;;14.30;2.77;;;;;;;2.87;83.83;100661.16;5033075;28;20186;-70
2021/04/10 03:23:00;;;;;;;10.07;2.60;;;;;;;2.83;83.81;100668.28;5033966;28;20215;-70
2021/04/10 03:25:26;;;;;;;10.43;2.47;;;;;;;2.80;83.75;100674.50;5034529;28;20172;-70
2021/04/10 03:27:51;;;;;;;10.93;2.70;;;;;;;2.78;84.25;100678.06;5032900;28;20187;-70
2021/04/10 03:30:16;;;;;;;8.93;2.50;;;;;;;2.78;84.05;100680.72;5035961;28;20299;-70
2021/04/10 03:32:43;;;;;;;11.20;2.93;;;;;;;2.78;84.10;100683.34;5022781;28;20179;-69
2021/04/10 03:35:09;;;;;;;9.43;2.07;;;;;;;2.76;83.98;100685.16;5034615;28;20240;-69
2021/04/10 03:37:34;;;;;;;14.80;3.40;;;;;;;2.75;83.97;100686.94;5032777;28;20714;-70
2021/04/10 03:40:01;;;;;;;11.67;2.43;;;;;;;2.73;84.11;100682.59;5034044;28;20547;-69
2021/04/10 03:42:38;;;;;;;7.70;2.47;;;;;;;2.72;84.41;100684.38;5032741;28;20540;-70
2021/04/10 03:45:05;;;;;;;12.53;2.93;;;;;;;2.70;84.16;100698.47;5032807;28;20203;-70
2021/04/10 03:47:30;;;;;;;11.77;2.60;;;;;;;2.72;83.86;100702.81;5034268;28;20202;-70
2021/04/10 03:49:56;;;;;;;9.10;2.50;;;;;;;2.74;83.76;100703.63;5033884;28;20712;-70
2021/04/10 03:52:21;;;;;;;12.20;3.30;;;;;;;2.64;84.27;100707.41;5032445;28;20179;-69
2021/04/10 03:54:47;;;;;;;10.07;2.53;;;;;;;2.62;84.09;100708.34;5057315;22;20296;-71
2021/04/10 03:57:12;;;;;;;8.17;2.50;;;;;;;2.67;84.08;100717.00;5035454;28;20200;-71
2021/04/10 03:59:37;;;;;;;10.50;2.40;;;;;;;2.58;84.58;100722.44;5035871;28;20182;-71
2021/04/10 04:02:02;;;;;;;5.20;2.07;;;;;;;2.56;84.60;100724.25;5035587;28;20190;-70
2021/04/10 04:04:28;;;;;;;15.93;2.70;;;;;;;2.56;84.51;100718.97;5034849;28;20198;-71
2021/04/10 04:06:53;;;;;;;10.10;3.07;;;;;;;2.55;84.58;100720.75;5036635;28;20182;-71
2021/04/10 04:09:18;;;;;;;12.00;2.87;;;;;;;2.51;85.09;100721.72;5034203;28;20176;-70
2021/04/10 04:11:44;;;;;;;13.00;2.60;;;;;;;2.48;84.98;100724.41;5035485;28;20225;-71
2021/04/10 04:14:09;;;;;;;11.73;2.80;;;;;;;2.41;85.55;100717.56;5016517;28;20235;-71
2021/04/10 04:16:34;;;;;;;8.67;2.80;;;;;;;2.40;85.76;100731.63;5016627;28;20552;-71
2021/04/10 04:18:59;;;;;;;11.77;3.23;;;;;;;2.36;86.03;100725.56;5033338;28;20183;-71
2021/04/10 04:21:25;;;;;;;11.50;3.30;;;;;;;2.36;85.72;100727.31;5034777;28;20177;-71
2021/04/10 04:23:50;;;;;;;11.60;3.90;;;;;;;2.33;86.10;100730.91;5035241;28;20267;-71
2021/04/10 04:26:15;;;;;;;6.97;2.77;;;;;;;2.29;85.97;100731.00;5033603;28;20666;-70
2021/04/10 04:28:41;;;;;;;19.40;3.60;;;;;;;2.26;86.34;100729.28;5033074;28;20183;-71
2021/04/10 04:31:06;;;;;;;14.93;3.00;;;;;;;2.16;86.36;100731.22;5016620;28;20179;-71
2021/04/10 04:33:31;;;;;;;12.23;3.97;;;;;;;2.15;86.70;100734.75;5033926;28;20212;-71
2021/04/10 04:35:57;;;;;;;15.63;4.33;;;;;;;2.14;87.00;100748.81;5034281;28;20173;-70
2021/04/10 04:38:22;;;;;;;15.20;3.37;;;;;;;2.13;86.87;100747.09;5033402;28;20529;-71
2021/04/10 04:40:47;;;;;;;21.37;3.90;;;;;;;2.13;86.89;100747.09;5016083;28;20223;-70
2021/04/10 04:43:13;;;;;;;16.27;3.50;;;;;;;2.08;87.11;100748.94;5032638;28;20178;-70
2021/04/10 04:45:38;;;;;;;15.10;3.90;;;;;;;2.14;87.05;100747.94;5032721;28;20509;-70
2021/04/10 04:48:03;;;;;;;11.13;3.93;;;;;;;2.19;86.66;100752.22;5032990;28;20180;-70
2021/04/10 04:50:29;;;;;;;14.37;3.60;;;;;;;2.24;86.69;100756.56;5033332;28;20194;-70
2021/04/10 04:52:54;;;;;;;12.97;4.17;;;;;;;2.31;86.55;100761.66;5033113;28;20216;-69
2021/04/10 04:55:19;;;;;;;9.70;2.90;;;;;;;2.39;85.76;100761.50;5033226;28;20635;-71
2021/04/10 04:57:44;;;;;;;11.70;3.30;;;;;;;2.40;85.65;100765.88;5034108;28;20181;-70
2021/04/10 05:00:11;;;;;;;12.27;3.80;;;;;;;2.44;85.71;100767.53;5035101;28;20186;-70
2021/04/10 05:02:36;;;;;;;22.33;4.07;;;;;;;2.58;84.88;100769.88;5032504;28;20183;-70
2021/04/10 05:05:02;;;;;;;12.00;3.60;;;;;;;2.64;85.44;100781.19;5015471;28;20205;-70
2021/04/10 05:07:27;;;;;;;15.27;4.40;;;;;;;2.67;84.35;100783.75;5031653;28;20556;-70
2021/04/10 05:09:53;;;;;;;16.57;4.10;;;;;;;2.73;84.37;100780.97;5032074;28;20175;-71
2021/04/10 05:12:18;;;;;;;9.77;3.73;;;;;;;2.71;84.04;100788.06;5031841;28;20214;-69
2021/04/10 05:14:43;;;;;;;11.50;3.40;;;;;;;2.82;84.12;100791.31;5031689;28;20242;-70
2021/04/10 05:17:09;;;;;;;14.20;4.40;;;;;;;2.93;83.93;100793.69;5031918;28;20259;-70
2021/04/10 05:19:34;;;;;;;12.10;3.70;;;;;;;2.98;83.20;100797.13;5032895;28;20663;-70
2021/04/10 05:21:59;;;;;;;12.17;3.47;;;;;;;3.09;83.18;100807.44;5032949;28;20168;-70
2021/04/10 05:24:25;;;;;;;11.03;3.10;;;;;;;3.21;82.80;100808.91;5032745;28;20195;-70
2021/04/10 05:26:50;;;;;;;7.80;2.83;;;;;;;3.27;82.44;100807.00;5035870;28;20179;-70
2021/04/10 05:29:15;;;;;;;6.00;2.40;;;;;;;3.35;82.08;100812.13;5036511;28;20724;-70
2021/04/10 05:31:41;;;;;;;11.63;3.77;;;;;;;3.43;81.63;100816.31;5035887;28;20171;-69
2021/04/10 05:34:06;;;;;;;10.80;4.07;;;;;;;3.51;80.85;100824.03;5019122;28;20203;-71
2021/04/10 05:36:31;;;;;;;13.40;3.50;;;;;;;3.51;81.05;100820.53;5037350;28;20202;-69
2021/04/10 05:38:57;;;;;;;11.73;3.60;;;;;;;3.60;80.18;100825.56;5036736;28;20647;-70
2021/04/10 05:41:22;;;;;;;11.90;3.00;;;;;;;3.60;80.11;100825.56;5035913;28;20187;-70
2021/04/10 05:43:47;;;;;;;11.10;3.73;;;;;;;3.63;79.93;100834.28;5038930;28;20261;-70
2021/04/10 05:46:13;;;;;;;12.77;3.07;;;;;;;3.62;79.80;100832.53;5018801;28;20180;-70
2021/04/10 05:48:38;;;;;;;10.33;3.87;;;;;;;3.66;78.87;100844.75;5035554;28;20176;-70
2021/04/10 05:51:03;;;;;;;18.13;4.40;;;;;;;3.33;80.33;100850.81;5036669;28;20161;-69
2021/04/10 05:53:29;;;;;;;15.37;4.47;;;;;;;3.36;81.69;100851.66;5035368;28;20211;-69
2021/04/10 05:55:55;;;;;;;9.83;3.27;;;;;;;3.59;80.12;100855.50;5018765;28;20326;-70
2021/04/10 05:58:20;;;;;;;11.53;3.63;;;;;;;3.75;79.33;100848.97;5034831;28;20176;-70
2021/04/10 06:00:46;;;;;;;11.60;3.97;;;;;;;3.75;79.32;100854.25;5018632;28;20176;-70
2021/04/10 06:03:11;;;;;;;11.00;3.67;;;;;;;3.81;78.50;100859.38;5034813;28;20180;-70
2021/04/10 06:05:36;;;;;;;11.80;3.77;;;;;;;3.86;78.86;100873.31;5018158;28;20485;-70
2021/04/10 06:08:02;;;;;;;10.27;3.50;;;;;;;3.81;79.27;100872.56;5034871;28;20223;-70
2021/04/10 06:10:27;;;;;;;9.47;3.40;;;;;;;3.79;78.95;100871.75;5034973;28;20226;-70
2021/04/10 06:12:52;;;;;;;13.43;4.60;;;;;;;3.75;79.16;100880.66;5035998;28;20299;-70
2021/04/10 06:15:19;;;;;;;12.57;3.33;;;;;;;3.72;79.21;100884.22;5018105;28;20204;-70
2021/04/10 06:17:45;;;;;;;14.13;3.83;;;;;;;3.71;80.19;100893.03;5034604;28;20175;-70
2021/04/10 06:20:11;;;;;;;14.73;3.50;;;;;;;3.74;79.65;100890.34;5034998;28;20230;-70
2021/04/10 06:22:37;;;;;;;12.50;3.70;;;;;;;3.87;79.67;100890.91;5038413;28;20172;-71
2021/04/10 06:25:04;;;;;;;12.73;3.87;;;;;;;3.99;78.04;100900.28;5021139;28;20195;-70
2021/04/10 06:27:29;;;;;;;13.10;3.47;;;;;;;3.87;78.12;100912.03;5018214;28;20640;-71
2021/04/10 06:29:55;;;;;;;12.00;3.70;;;;;;;4.01;77.98;100909.03;5034407;28;20182;-71
2021/04/10 06:32:20;;;;;;;12.50;3.50;;;;;;;4.12;77.33;100908.78;5035530;28;20169;-69
2021/04/10 06:34:45;;;;;;;18.40;4.07;;;;;;;4.01;78.10;100914.31;5035390;28;20193;-69
2021/04/10 06:37:11;;;;;;;13.00;3.60;;;;;;;4.08;77.74;100918.53;5034637;28;20176;-70
2021/04/10 06:39:36;;;;;;;10.67;3.50;;;;;;;4.45;77.00;100920.25;5019458;28;20176;-69
2021/04/10 06:42:04;;;;;;;13.90;3.80;;;;;;;4.49;75.85;100912.22;5035571;28;20172;-70
2021/04/10 06:44:29;;;;;;;14.63;3.47;;;;;;;4.54;76.32;100912.97;5034290;28;20184;-70
2021/04/10 06:46:56;;;;;;;13.23;3.33;;;;;;;4.56;74.90;100912.91;5018108;28;20259;-70
2021/04/10 06:49:23;;;;;;;11.97;3.63;;;;;;;4.62;74.59;100912.75;5035133;28;20222;-71
2021/04/10 06:51:48;;;;;;;10.70;3.20;;;;;;;4.81;74.31;100913.09;5035277;28;20180;-71
2021/04/10 06:54:15;;;;;;;11.70;3.43;;;;;;;4.61;73.84;100919.81;5035154;28;20580;-72
2021/04/10 06:56:51;;;;;;;16.97;3.43;;;;;;;4.99;71.80;100912.59;5020403;28;20184;-73
2021/04/10 06:59:19;;;;;;;18.27;3.70;;;;;;;4.96;72.60;100912.69;5039969;28;20254;-71
2021/04/10 07:01:45;;;;;;;13.60;3.20;;;;;;;4.55;73.83;100925.25;5041770;28;20176;-70
2021/04/10 07:04:11;;;;;;;15.80;3.40;;;;;;;4.61;71.93;100927.75;5039387;28;20196;-71
2021/04/10 07:06:37;;;;;;;20.87;3.83;;;;;;;4.27;73.19;100935.69;5037798;28;20207;-70
2021/04/10 07:09:03;;;;;;;16.67;3.53;;;;;;;3.94;73.58;100941.78;5042522;28;20226;-70
2021/04/10 07:11:28;;;;;;;11.40;3.43;;;;;;;3.90;75.06;100943.63;5043283;28;20258;-70
2021/04/10 07:13:54;;;;;;;13.37;3.10;;;;;;;4.02;75.00;100938.06;5035487;28;20286;-70
2021/04/10 07:16:19;;;;;;;15.20;3.07;;;;;;;3.97;74.98;100945.22;5036651;28;20187;-71
2021/04/10 07:18:45;;;;;;;17.30;3.50;;;;;;;4.13;74.70;100947.50;5035770;28;20212;-70
2021/04/10 07:21:16;;;;;;;14.53;3.70;;;;;;;4.40;73.68;100944.16;5034723;28;20177;-70
2021/04/10 07:23:52;;;;;;;6.90;2.47;;;;;;;4.49;71.20;100943.06;5036891;28;20271;-71
2021/04/10 07:26:39;;;;;;;14.57;2.80;;;;;;;4.59;70.39;100949.84;5035509;28;20625;-70
2021/04/10 07:29:05;;;;;;;10.23;3.10;;;;;;;4.45;71.18;100949.31;5038892;28;20164;-71
2021/04/10 07:31:32;;;;;;;14.20;2.80;;;;;;;4.34;70.90;100950.47;5036973;28;20187;-71
2021/04/10 07:33:58;;;;;;;17.23;2.80;;;;;;;4.56;70.71;100950.78;5036688;28;20202;-69
2021/04/10 07:36:24;;;;;;;15.07;3.30;;;;;;;4.39;70.84;100948.56;5017977;28;20220;-72
2021/04/10 07:38:57;;;;;;;14.60;3.83;;;;;;;4.23;71.12;100951.66;5017905;28;20216;-70
2021/04/10 07:41:23;;;;;;;13.10;3.00;;;;;;;4.28;70.56;100960.31;5037335;28;20161;-71
2021/04/10 07:43:48;;;;;;;11.93;2.77;;;;;;;4.28;70.83;100952.41;5039134;28;20188;-70
2021/04/10 07:46:22;;;;;;;12.63;2.53;;;;;;;4.50;70.48;100953.59;5033973;28;20187;-72
2021/04/10 07:49:04;;;;;;;9.50;2.83;;;;;;;4.68;69.31;100955.75;5034019;28;20179;-71
2021/04/10 07:51:38;;;;;;;10.20;2.53;;;;;;;4.76;66.72;100959.94;5017349;28;20184;-70
2021/04/10 07:54:27;;;;;;;12.20;2.97;;;;;;;5.24;63.80;100950.66;5017877;28;20238;-70
2021/04/10 07:56:58;;;;;;;14.33;2.40;;;;;;;5.48;63.31;100959.66;5038475;28;20172;-70
2021/04/10 07:59:24;;;;;;;12.93;2.40;;;;;;;5.45;62.95;100957.09;5017976;28;20218;-70
2021/04/10 08:01:49;;;;;;;14.67;2.93;;;;;;;5.71;59.81;100961.59;5033767;28;20202;-70
2021/04/10 08:04:16;;;;;;;10.93;3.10;;;;;;;5.48;61.29;100964.94;5034243;28;20188;-71
2021/04/10 08:06:59;;;;;;;9.63;2.20;;;;;;;5.63;62.39;100963.63;5033355;28;20164;-70
2021/04/10 08:09:34;;;;;;;6.37;2.00;;;;;;;5.92;60.14;100960.09;5033913;28;20186;-70
2021/04/10 08:12:00;;;;;;;15.97;3.20;;;;;;;5.64;62.01;100960.94;5018353;28;20221;-70
2021/04/10 08:14:37;;;;;;;15.37;2.93;;;;;;;5.65;62.03;100964.44;5017719;28;20287;-70
2021/04/10 08:17:03;;;;;;;9.47;1.93;;;;;;;6.32;60.79;100964.09;5016785;28;20184;-70
2021/04/10 08:19:29;;;;;;;10.80;2.33;;;;;;;6.76;59.87;100967.91;5033270;28;20183;-70
2021/04/10 08:21:55;;;;;;;7.10;1.90;;;;;;;7.38;57.48;100970.91;5033193;28;20168;-70
2021/04/10 08:24:20;;;;;;;13.73;2.30;;;;;;;7.39;57.30;100959.38;5033902;28;20201;-70
2021/04/10 08:26:46;;;;;;;15.27;3.20;;;;;;;7.94;56.18;100969.66;5034296;28;20294;-71
2021/04/10 08:29:11;;;;;;;7.40;3.23;;;;;;;8.04;56.51;100974.53;5032673;28;20548;-69
2021/04/10 08:31:36;;;;;;;13.00;2.63;;;;;;;8.18;54.05;100966.03;5034453;28;20532;-70
2021/04/10 08:34:02;;;;;;;11.73;3.00;;;;;;;7.93;55.38;100978.56;5032937;28;20215;-71
2021/04/10 08:36:27;;;;;;;15.30;2.90;;;;;;;7.81;55.31;100967.50;5032786;28;20263;-71
2021/04/10 08:38:52;;;;;;;11.10;2.00;;;;;;;8.26;51.43;100981.66;5033437;28;20207;-70
2021/04/10 08:41:18;;;;;;;11.37;2.47;;;;;;;7.33;52.26;100979.97;5032616;28;20222;-71
2021/04/10 08:43:49;;;;;;;8.40;2.20;;;;;;;7.46;52.67;100973.31;5032495;28;20199;-70
2021/04/10 08:46:18;;;;;;;10.60;2.50;;;;;;;6.22;54.63;100979.44;5032090;28;20172;-71
2021/04/10 08:48:44;;;;;;;10.70;1.60;;;;;;;6.13;54.26;100982.41;5032587;28;20175;-71
2021/04/10 08:51:10;;;;;;;11.43;2.20;;;;;;;5.91;54.79;100987.50;5032622;28;20237;-72
2021/04/10 08:53:41;;;;;;;9.30;2.17;;;;;;;6.36;54.62;100993.13;5015844;28;20215;-71
2021/04/10 08:56:10;;;;;;;13.10;2.37;;;;;;;6.23;52.53;100992.63;5032513;28;20650;-71
2021/04/10 08:58:39;;;;;;;9.70;2.03;;;;;;;6.75;52.66;100996.22;5033321;28;20176;-71
2021/04/10 09:01:07;;;;;;;13.43;2.00;;;;;;;6.93;51.12;100999.13;5036244;28;20183;-72
2021/04/10 09:06:05;;;;;;;10.70;2.00;;;;;;;6.76;52.98;101015.66;4996516;28;20616;-71
2021/04/10 09:08:31;;;;;;;6.23;1.93;;;;;;;7.26;51.24;101005.03;4997426;28;20200;-71
2021/04/10 09:10:58;;;;;;;9.73;2.03;;;;;;;7.20;51.36;101003.47;4997458;28;20223;-71
2021/04/10 09:13:25;;;;;;;14.07;2.27;;;;;;;7.64;50.86;101004.47;4995997;28;20193;-71
2021/04/10 09:16:28;;;;;;;10.67;2.27;;;;;;;7.92;50.72;101004.28;4997065;28;20197;-71
2021/04/10 09:18:59;;;;;;;8.43;2.20;;;;;;;7.42;52.09;101014.16;5041203;22;20317;-70
2021/04/10 09:21:33;;;;;;;7.43;1.87;;;;;;;7.16;52.12;101017.78;5036407;28;20262;-68
2021/04/10 09:23:58;;;;;;;7.37;1.63;;;;;;;7.06;52.18;101022.56;5035584;28;20152;-67
2021/04/10 09:26:24;;;;;;;11.67;2.53;;;;;;;6.56;52.40;101017.19;5036093;28;20603;-69
2021/04/10 09:28:55;;;;;;;9.53;1.90;;;;;;;6.63;52.67;101017.84;5035825;28;20341;-69
2021/04/10 09:31:38;;;;;;;9.80;2.07;;;;;;;6.55;52.84;101020.75;5035858;28;20206;-69
2021/04/10 09:34:04;;;;;;;8.43;2.00;;;;;;;7.06;50.48;101027.88;5034479;28;20566;-69
2021/04/10 09:36:46;;;;;;;6.97;2.00;;;;;;;7.34;47.62;101024.19;5035973;28;20725;-69
2021/04/10 09:39:50;;;;;;;11.60;2.53;;;;;;;8.62;47.42;101022.75;5035048;28;20235;-69
2021/04/10 09:42:34;;;;;;;8.27;2.30;;;;;;;9.88;45.23;101016.22;5035868;28;20547;-69
2021/04/10 09:45:12;;;;;;;7.73;1.60;;;;;;;9.57;44.18;101034.56;5035800;28;20168;-69
2021/04/10 09:50:39;;;;;;;11.93;2.07;;;;;;;9.72;44.78;101028.53;5036107;28;20651;-67
2021/04/10 09:53:15;;;;;;;11.50;1.73;;;;;;;7.83;48.95;101025.91;5035788;28;20223;-68
2021/04/10 09:55:43;;;;;;;7.33;1.77;;;;;;;7.49;49.79;101027.19;5035890;28;20658;-69
2021/04/10 09:58:20;;;;;;;7.00;2.13;;;;;;;7.75;49.23;101028.84;5036544;28;20261;-68
2021/04/10 10:00:48;;;;;;;8.43;1.93;;;;;;;8.30;48.28;101031.13;5035189;28;20258;-69
2021/04/10 10:03:15;;;;;;;8.37;1.93;;;;;;;8.60;47.83;101032.59;5035798;28;20179;-69
2021/04/10 10:05:49;;;;;;;11.17;2.30;;;;;;;8.37;46.22;101037.97;5035684;28;20189;-67
2021/04/10 10:08:15;;;;;;;6.53;1.73;;;;;;;9.00;44.36;101039.75;5035527;28;20224;-67
2021/04/10 10:10:43;;;;;;;6.23;1.50;;;;;;;9.68;42.76;101041.16;5033864;28;20176;-68
2021/04/10 10:13:12;;;;;;;6.00;1.50;;;;;;;8.95;43.38;101048.88;5035572;28;20271;-68
2021/04/10 10:15:38;;;;;;;10.50;1.83;;;;;;;8.57;43.80;101053.13;5034240;28;20178;-68
2021/04/10 10:18:37;;;;;;;8.10;1.40;;;;;;;8.97;44.22;101053.19;5017526;28;20200;-68
2021/04/10 10:21:19;;;;;;;6.03;1.23;;;;;;;9.53;42.06;101044.50;5003042;28;20263;-69
2021/04/10 10:23:59;;;;;;;4.63;1.37;;;;;;;10.87;40.33;101039.88;5035548;28;20153;-68
2021/04/10 10:26:26;;;;;;;4.53;1.53;;;;;;;9.25;41.88;101033.34;5035267;28;20191;-69
2021/04/10 10:29:14;;;;;;;8.60;1.80;;;;;;;9.08;42.30;101044.72;5034097;28;20204;-69
2021/04/10 10:31:46;;;;;;;5.03;1.63;;;;;;;9.09;43.30;101051.78;5035198;28;20634;-69
2021/04/10 10:34:14;;;;;;;3.93;1.63;;;;;;;9.92;41.80;101046.25;5034787;28;20192;-68
2021/04/10 10:36:41;;;;;;;5.57;1.27;;;;;;;9.03;43.83;101054.72;5035043;28;20172;-69
2021/04/10 10:39:09;;;;;;;7.87;1.67;;;;;;;9.34;43.50;101059.59;5035109;28;20291;-69
2021/04/10 10:41:44;;;;;;;4.60;1.33;;;;;;;10.51;41.31;101058.59;5033913;28;20255;-68
2021/04/10 10:44:10;;;;;;;5.43;1.40;;;;;;;9.73;40.12;101053.41;5035348;28;20171;-69
2021/04/10 10:46:36;;;;;;;6.90;1.47;;;;;;;10.53;39.40;101057.56;5033459;28;20171;-68
2021/04/10 10:49:07;;;;;;;5.80;1.30;;;;;;;10.72;38.83;101053.97;5034811;28;20199;-67
2021/04/10 10:51:35;;;;;;;3.47;1.33;;;;;;;10.94;37.87;101057.31;5034759;28;20682;-68
2021/04/10 10:54:01;;;;;;;4.13;1.43;;;;;;;11.25;36.55;101060.13;5034777;28;20199;-68
2021/04/10 10:56:27;;;;;;;7.10;1.50;;;;;;;11.96;35.95;101054.59;5034719;28;20174;-68
2021/04/10 10:58:54;;;;;;;5.10;1.37;;;;;;;12.27;35.87;101052.88;5034792;28;20192;-68
2021/04/10 11:01:28;;;;;;;5.00;1.40;;;;;;;13.38;33.27;101059.72;5033390;28;20180;-68
2021/04/10 11:03:59;;;;;;;9.17;1.23;;;;;;;13.32;33.38;101047.56;5016675;28;20176;-68
2021/04/10 11:06:27;;;;;;;5.27;1.63;;;;;;;13.49;31.81;101059.94;5033040;28;20212;-68
2021/04/10 11:08:53;;;;;;;8.60;1.60;;;;;;;13.57;31.65;101060.34;5033174;28;20200;-69
2021/04/10 11:11:22;;;;;;;5.27;1.50;;;;;;;13.17;32.71;101072.63;5034281;28;20539;-69
2021/04/10 11:13:48;;;;;;;5.40;1.47;;;;;;;14.14;31.79;101067.53;5033264;28;20196;-69
2021/04/10 11:16:15;;;;;;;6.40;1.60;;;;;;;16.19;27.78;101063.31;5033136;28;20172;-68
2021/04/10 11:18:41;;;;;;;9.27;1.73;;;;;;;15.07;29.46;101070.28;5032936;28;20203;-68
2021/04/10 11:21:15;;;;;;;5.13;1.70;;;;;;;15.46;28.53;101071.22;5032876;28;20238;-70
2021/04/10 11:24:00;;;;;;;10.50;1.60;;;;;;;14.84;30.20;101071.81;5033246;28;20172;-69
2021/04/10 11:26:31;;;;;;;2.73;1.30;;;;;;;14.73;30.78;101069.00;5034020;28;20164;-69
2021/04/10 11:29:33;;;;;;;9.73;1.73;;;;;;;12.04;33.70;101068.41;5016021;28;20342;-68
2021/04/10 11:32:11;;;;;;;7.10;1.87;;;;;;;12.10;33.67;101068.06;5011023;28;20338;-68
2021/04/10 11:34:54;;;;;;;5.00;1.47;;;;;;;12.34;33.50;101067.66;5034125;28;20196;-68
2021/04/10 11:37:29;;;;;;;5.83;1.20;;;;;;;14.05;30.32;101069.81;5033377;28;20485;-68
2021/04/10 11:40:03;;;;;;;3.47;1.20;;;;;;;14.13;30.68;101066.66;5034288;28;20192;-69